sensor_id;sensor_type;location;lat;lon;timestamp;pressure;altitude;pressure_sealevel;temperature;humidity
42633;BME280;28261;53.304;-6.284;2022-10-03T00:00:00;102023.97;;;12.96;80.06
42633;BME280;28261;53.304;-6.284;2022-10-03T00:02:24;102021.22;;;12.98;79.66
42633;BME280;28261;53.304;-6.284;2022-10-03T00:04:43;102020.28;;;12.99;80.37
42633;BME280;28261;53.304;-6.284;2022-10-03T00:06:59;102026.56;;;12.98;79.70
42633;BME280;28261;53.304;-6.284;2022-10-03T00:09:24;102017.72;;;12.97;79.71
42633;BME280;28261;53.304;-6.284;2022-10-03T00:11:39;102016.84;;;12.97;80.06
42633;BME280;28261;53.304;-6.284;2022-10-03T00:13:53;102021.41;;;12.95;79.24
42633;BME280;28261;53.304;-6.284;2022-10-03T00:16:09;102034.63;;;12.96;78.78
42633;BME280;28261;53.304;-6.284;2022-10-03T00:18:29;102029.31;;;12.96;78.99
42633;BME280;28261;53.304;-6.284;2022-10-03T00:20:48;102026.56;;;12.98;79.22
42633;BME280;28261;53.304;-6.284;2022-10-03T00:22:59;102030.00;;;13.00;79.02
42633;BME280;28261;53.304;-6.284;2022-10-03T00:25:22;102028.28;;;12.99;78.72
42633;BME280;28261;53.304;-6.284;2022-10-03T00:27:34;102030.94;;;12.99;78.93
42633;BME280;28261;53.304;-6.284;2022-10-03T00:29:43;102021.22;;;12.98;77.95
42633;BME280;28261;53.304;-6.284;2022-10-03T00:31:57;102022.00;;;13.00;78.57
42633;BME280;28261;53.304;-6.284;2022-10-03T00:34:10;102023.78;;;12.99;77.74
42633;BME280;28261;53.304;-6.284;2022-10-03T00:36:28;102019.34;;;13.00;78.40
42633;BME280;28261;53.304;-6.284;2022-10-03T00:38:56;102029.13;;;12.99;78.08
42633;BME280;28261;53.304;-6.284;2022-10-03T00:47:03;102027.34;;;13.00;77.59
42633;BME280;28261;53.304;-6.284;2022-10-03T00:49:41;102018.66;;;12.96;77.94
42633;BME280;28261;53.304;-6.284;2022-10-03T00:51:59;102017.88;;;12.94;78.39
42633;BME280;28261;53.304;-6.284;2022-10-03T00:54:20;102025.84;;;12.94;78.60
42633;BME280;28261;53.304;-6.284;2022-10-03T00:56:41;102028.50;;;12.94;78.67
42633;BME280;28261;53.304;-6.284;2022-10-03T00:58:57;102024.91;;;12.95;77.74
42633;BME280;28261;53.304;-6.284;2022-10-03T01:01:23;102026.81;;;12.93;77.90
42633;BME280;28261;53.304;-6.284;2022-10-03T01:03:39;102031.13;;;12.96;78.89
42633;BME280;28261;53.304;-6.284;2022-10-03T01:05:58;102025.84;;;12.94;78.28
42633;BME280;28261;53.304;-6.284;2022-10-03T01:08:36;102035.66;;;12.94;78.89
42633;BME280;28261;53.304;-6.284;2022-10-03T01:10:51;102022.44;;;12.92;78.51
42633;BME280;28261;53.304;-6.284;2022-10-03T01:13:13;102019.88;;;12.91;78.76
42633;BME280;28261;53.304;-6.284;2022-10-03T01:15:26;102019.88;;;12.91;79.31
42633;BME280;28261;53.304;-6.284;2022-10-03T01:17:41;102019.06;;;12.89;79.22
42633;BME280;28261;53.304;-6.284;2022-10-03T01:20:03;102023.66;;;12.86;79.58
42633;BME280;28261;53.304;-6.284;2022-10-03T01:22:26;102014.13;;;12.82;79.87
42633;BME280;28261;53.304;-6.284;2022-10-03T01:24:56;102014.53;;;12.75;80.47
42633;BME280;28261;53.304;-6.284;2022-10-03T01:27:02;102021.22;;;12.66;80.48
42633;BME280;28261;53.304;-6.284;2022-10-03T01:29:09;102019.84;;;12.59;80.79
42633;BME280;28261;53.304;-6.284;2022-10-03T01:31:39;102018.28;;;12.55;80.84
42633;BME280;28261;53.304;-6.284;2022-10-03T01:33:49;102025.59;;;12.51;81.24
42633;BME280;28261;53.304;-6.284;2022-10-03T01:36:00;102022.06;;;12.50;80.44
42633;BME280;28261;53.304;-6.284;2022-10-03T01:38:15;102018.53;;;12.50;81.24
42633;BME280;28261;53.304;-6.284;2022-10-03T01:40:26;102026.63;;;12.48;80.30
42633;BME280;28261;53.304;-6.284;2022-10-03T01:42:40;102024.13;;;12.45;80.51
42633;BME280;28261;53.304;-6.284;2022-10-03T01:45:02;102014.44;;;12.44;80.57
42633;BME280;28261;53.304;-6.284;2022-10-03T01:47:21;102016.22;;;12.44;80.38
42633;BME280;28261;53.304;-6.284;2022-10-03T01:49:35;102009.94;;;12.45;81.04
42633;BME280;28261;53.304;-6.284;2022-10-03T01:51:46;102007.47;;;12.42;80.94
42633;BME280;28261;53.304;-6.284;2022-10-03T01:54:10;102006.63;;;12.41;80.85
42633;BME280;28261;53.304;-6.284;2022-10-03T01:56:23;101995.09;;;12.41;79.91
42633;BME280;28261;53.304;-6.284;2022-10-03T01:58:48;102003.16;;;12.39;80.76
42633;BME280;28261;53.304;-6.284;2022-10-03T02:01:05;102006.75;;;12.38;80.00
42633;BME280;28261;53.304;-6.284;2022-10-03T02:03:19;102005.84;;;12.39;80.67
42633;BME280;28261;53.304;-6.284;2022-10-03T02:05:27;102004.97;;;12.39;79.63
42633;BME280;28261;53.304;-6.284;2022-10-03T02:07:43;102005.13;;;12.35;79.32
42633;BME280;28261;53.304;-6.284;2022-10-03T02:09:58;102000.84;;;12.33;79.38
42633;BME280;28261;53.304;-6.284;2022-10-03T02:12:10;101999.13;;;12.32;80.29
42633;BME280;28261;53.304;-6.284;2022-10-03T02:14:22;102005.38;;;12.31;80.17
42633;BME280;28261;53.304;-6.284;2022-10-03T02:16:34;101991.38;;;12.27;80.35
42633;BME280;28261;53.304;-6.284;2022-10-03T02:18:43;101996.78;;;12.26;80.05
42633;BME280;28261;53.304;-6.284;2022-10-03T02:20:52;101995.78;;;12.28;80.18
42633;BME280;28261;53.304;-6.284;2022-10-03T02:23:01;101992.28;;;12.28;80.29
42633;BME280;28261;53.304;-6.284;2022-10-03T02:25:17;101988.59;;;12.30;80.45
42633;BME280;28261;53.304;-6.284;2022-10-03T02:30:11;101977.88;;;12.32;79.18
42633;BME280;28261;53.304;-6.284;2022-10-03T02:33:09;101983.00;;;12.35;79.05
42633;BME280;28261;53.304;-6.284;2022-10-03T02:35:33;101977.59;;;12.36;79.48
42633;BME280;28261;53.304;-6.284;2022-10-03T02:38:04;101980.97;;;12.40;79.37
42633;BME280;28261;53.304;-6.284;2022-10-03T02:40:45;101979.16;;;12.41;78.49
42633;BME280;28261;53.304;-6.284;2022-10-03T02:43:30;101969.22;;;12.44;78.78
42633;BME280;28261;53.304;-6.284;2022-10-03T02:46:09;101969.03;;;12.47;78.96
42633;BME280;28261;53.304;-6.284;2022-10-03T02:54:14;101967.31;;;12.46;77.92
42633;BME280;28261;53.304;-6.284;2022-10-03T02:56:55;101969.03;;;12.47;77.84
42633;BME280;28261;53.304;-6.284;2022-10-03T03:01:58;101973.50;;;12.47;77.60
42633;BME280;28261;53.304;-6.284;2022-10-03T03:04:42;101969.97;;;12.46;77.64
42633;BME280;28261;53.304;-6.284;2022-10-03T03:07:02;101967.31;;;12.46;77.42
42633;BME280;28261;53.304;-6.284;2022-10-03T03:12:16;101954.09;;;12.45;77.15
42633;BME280;28261;53.304;-6.284;2022-10-03T03:17:14;101945.28;;;12.44;78.12
42633;BME280;28261;53.304;-6.284;2022-10-03T03:22:18;101938.59;;;12.37;78.08
42633;BME280;28261;53.304;-6.284;2022-10-03T03:24:43;101933.59;;;12.31;78.29
42633;BME280;28261;53.304;-6.284;2022-10-03T03:27:03;101930.31;;;12.26;78.60
42633;BME280;28261;53.304;-6.284;2022-10-03T03:29:20;101920.88;;;12.20;78.51
42633;BME280;28261;53.304;-6.284;2022-10-03T03:31:33;101923.81;;;12.15;79.06
42633;BME280;28261;53.304;-6.284;2022-10-03T03:33:53;101919.75;;;12.08;79.21
42633;BME280;28261;53.304;-6.284;2022-10-03T03:36:07;101920.94;;;12.02;79.79
42633;BME280;28261;53.304;-6.284;2022-10-03T03:38:23;101907.91;;;11.98;79.64
42633;BME280;28261;53.304;-6.284;2022-10-03T03:40:39;101908.75;;;11.98;80.44
42633;BME280;28261;53.304;-6.284;2022-10-03T03:42:57;101899.00;;;11.99;80.14
42633;BME280;28261;53.304;-6.284;2022-10-03T03:45:21;101898.03;;;12.00;79.83
42633;BME280;28261;53.304;-6.284;2022-10-03T03:47:46;101892.50;;;12.05;80.49
42633;BME280;28261;53.304;-6.284;2022-10-03T03:50:08;101896.63;;;12.10;79.60
42633;BME280;28261;53.304;-6.284;2022-10-03T03:52:34;101891.13;;;12.13;79.87
42633;BME280;28261;53.304;-6.284;2022-10-03T03:54:53;101891.91;;;12.15;79.57
42633;BME280;28261;53.304;-6.284;2022-10-03T04:00:02;101893.56;;;12.18;80.62
42633;BME280;28261;53.304;-6.284;2022-10-03T04:02:24;101884.69;;;12.17;80.39
42633;BME280;28261;53.304;-6.284;2022-10-03T04:04:59;101885.63;;;12.16;81.00
42633;BME280;28261;53.304;-6.284;2022-10-03T04:07:14;101880.50;;;12.13;80.74
42633;BME280;28261;53.304;-6.284;2022-10-03T04:09:50;101884.25;;;12.09;81.13
42633;BME280;28261;53.304;-6.284;2022-10-03T04:12:04;101880.75;;;12.09;80.79
42633;BME280;28261;53.304;-6.284;2022-10-03T04:14:33;101875.53;;;12.07;81.40
42633;BME280;28261;53.304;-6.284;2022-10-03T04:16:55;101872.97;;;12.06;82.06
42633;BME280;28261;53.304;-6.284;2022-10-03T04:19:24;101876.88;;;11.98;82.55
42633;BME280;28261;53.304;-6.284;2022-10-03T04:21:43;101864.00;;;11.91;83.46
42633;BME280;28261;53.304;-6.284;2022-10-03T04:24:03;101858.69;;;11.91;83.37
42633;BME280;28261;53.304;-6.284;2022-10-03T04:26:25;101856.09;;;11.89;83.64
42633;BME280;28261;53.304;-6.284;2022-10-03T04:28:48;101854.47;;;11.87;83.37
42633;BME280;28261;53.304;-6.284;2022-10-03T04:31:06;101858.25;;;11.82;84.05
42633;BME280;28261;53.304;-6.284;2022-10-03T04:33:25;101856.50;;;11.81;84.12
42633;BME280;28261;53.304;-6.284;2022-10-03T04:35:51;101857.44;;;11.80;84.89
42633;BME280;28261;53.304;-6.284;2022-10-03T04:38:05;101859.34;;;11.78;85.50
42633;BME280;28261;53.304;-6.284;2022-10-03T04:40:24;101856.84;;;11.75;85.51
42633;BME280;28261;53.304;-6.284;2022-10-03T04:42:41;101845.44;;;11.73;84.79
42633;BME280;28261;53.304;-6.284;2022-10-03T04:45:13;101837.88;;;11.65;85.19
42633;BME280;28261;53.304;-6.284;2022-10-03T04:47:26;101840.72;;;11.62;85.77
42633;BME280;28261;53.304;-6.284;2022-10-03T04:49:36;101833.59;;;11.63;85.96
42633;BME280;28261;53.304;-6.284;2022-10-03T04:51:49;101828.28;;;11.63;85.89
42633;BME280;28261;53.304;-6.284;2022-10-03T04:54:00;101828.75;;;11.54;86.79
42633;BME280;28261;53.304;-6.284;2022-10-03T04:56:17;101836.72;;;11.54;86.90
42633;BME280;28261;53.304;-6.284;2022-10-03T04:58:31;101826.91;;;11.56;86.40
42633;BME280;28261;53.304;-6.284;2022-10-03T05:00:47;101835.47;;;11.61;87.18
42633;BME280;28261;53.304;-6.284;2022-10-03T05:03:02;101826.50;;;11.63;86.56
42633;BME280;28261;53.304;-6.284;2022-10-03T05:05:24;101825.53;;;11.64;87.12
42633;BME280;28261;53.304;-6.284;2022-10-03T05:07:34;101819.38;;;11.64;87.10
42633;BME280;28261;53.304;-6.284;2022-10-03T05:09:48;101826.22;;;11.68;87.01
42633;BME280;28261;53.304;-6.284;2022-10-03T05:12:00;101817.16;;;11.72;86.80
42633;BME280;28261;53.304;-6.284;2022-10-03T05:14:09;101815.28;;;11.74;87.00
42633;BME280;28261;53.304;-6.284;2022-10-03T05:16:19;101804.50;;;11.77;86.86
42633;BME280;28261;53.304;-6.284;2022-10-03T05:18:31;101802.59;;;11.79;86.80
42633;BME280;28261;53.304;-6.284;2022-10-03T05:20:50;101792.84;;;11.80;87.61
42633;BME280;28261;53.304;-6.284;2022-10-03T05:23:04;101789.22;;;11.81;87.34
42633;BME280;28261;53.304;-6.284;2022-10-03T05:25:20;101793.50;;;11.83;87.18
42633;BME280;28261;53.304;-6.284;2022-10-03T05:27:32;101798.81;;;11.83;87.20
42633;BME280;28261;53.304;-6.284;2022-10-03T05:29:43;101802.44;;;11.82;87.74
42633;BME280;28261;53.304;-6.284;2022-10-03T05:32:04;101800.72;;;11.81;87.11
42633;BME280;28261;53.304;-6.284;2022-10-03T05:34:20;101789.41;;;11.78;87.80
42633;BME280;28261;53.304;-6.284;2022-10-03T05:36:30;101785.81;;;11.79;87.48
42633;BME280;28261;53.304;-6.284;2022-10-03T05:41:33;101788.38;;;11.80;88.08
42633;BME280;28261;53.304;-6.284;2022-10-03T05:43:50;101781.19;;;11.82;87.38
42633;BME280;28261;53.304;-6.284;2022-10-03T05:46:03;101793.38;;;11.87;86.85
42633;BME280;28261;53.304;-6.284;2022-10-03T05:48:21;101782.56;;;11.90;87.44
42633;BME280;28261;53.304;-6.284;2022-10-03T05:55:59;101779.91;;;11.90;86.96
42633;BME280;28261;53.304;-6.284;2022-10-03T05:58:40;101776.72;;;11.83;86.94
42633;BME280;28261;53.304;-6.284;2022-10-03T06:01:09;101781.34;;;11.79;86.51
42633;BME280;28261;53.304;-6.284;2022-10-03T06:05:58;101787.09;;;11.88;84.60
42633;BME280;28261;53.304;-6.284;2022-10-03T06:08:22;101783.31;;;11.92;83.36
42633;BME280;28261;53.304;-6.284;2022-10-03T06:10:52;101772.28;;;11.99;81.55
42633;BME280;28261;53.304;-6.284;2022-10-03T06:13:11;101771.97;;;12.06;80.59
42633;BME280;28261;53.304;-6.284;2022-10-03T06:15:36;101776.06;;;12.11;79.10
42633;BME280;28261;53.304;-6.284;2022-10-03T06:18:00;101783.78;;;12.16;78.61
42633;BME280;28261;53.304;-6.284;2022-10-03T06:20:19;101770.25;;;12.21;77.23
42633;BME280;28261;53.304;-6.284;2022-10-03T06:22:50;101771.78;;;12.25;77.20
42633;BME280;28261;53.304;-6.284;2022-10-03T06:25:26;101764.38;;;12.30;76.33
42633;BME280;28261;53.304;-6.284;2022-10-03T06:30:21;101768.22;;;12.40;75.47
42633;BME280;28261;53.304;-6.284;2022-10-03T06:35:36;101782.03;;;12.47;74.18
42633;BME280;28261;53.304;-6.284;2022-10-03T06:40:57;101778.13;;;12.52;73.88
42633;BME280;28261;53.304;-6.284;2022-10-03T06:43:38;101774.53;;;12.53;74.41
42633;BME280;28261;53.304;-6.284;2022-10-03T06:51:16;101771.59;;;12.58;74.99
42633;BME280;28261;53.304;-6.284;2022-10-03T06:56:29;101771.59;;;12.58;75.21
42633;BME280;28261;53.304;-6.284;2022-10-03T06:58:54;101767.22;;;12.57;75.15
42633;BME280;28261;53.304;-6.284;2022-10-03T07:01:21;101768.09;;;12.58;75.07
42633;BME280;28261;53.304;-6.284;2022-10-03T07:04:01;101764.47;;;12.59;74.80
42633;BME280;28261;53.304;-6.284;2022-10-03T07:06:14;101769.63;;;12.62;75.37
42633;BME280;28261;53.304;-6.284;2022-10-03T07:11:34;101770.47;;;12.62;75.39
42633;BME280;28261;53.304;-6.284;2022-10-03T07:14:18;101773.13;;;12.62;75.79
42633;BME280;28261;53.304;-6.284;2022-10-03T07:17:02;101771.31;;;12.63;76.62
42633;BME280;28261;53.304;-6.284;2022-10-03T07:19:23;101773.22;;;12.61;76.84
42633;BME280;28261;53.304;-6.284;2022-10-03T07:24:37;101774.06;;;12.61;76.54
42633;BME280;28261;53.304;-6.284;2022-10-03T07:27:14;101769.78;;;12.59;77.17
42633;BME280;28261;53.304;-6.284;2022-10-03T07:29:26;101772.53;;;12.57;78.21
42633;BME280;28261;53.304;-6.284;2022-10-03T07:31:42;101772.63;;;12.56;77.71
42633;BME280;28261;53.304;-6.284;2022-10-03T07:36:44;101775.19;;;12.57;77.67
42633;BME280;28261;53.304;-6.284;2022-10-03T07:39:30;101769.78;;;12.59;77.18
42633;BME280;28261;53.304;-6.284;2022-10-03T07:42:02;101774.94;;;12.62;76.62
42633;BME280;28261;53.304;-6.284;2022-10-03T07:50:02;101783.50;;;12.67;77.44
42633;BME280;28261;53.304;-6.284;2022-10-03T07:52:46;101773.72;;;12.67;77.32
42633;BME280;28261;53.304;-6.284;2022-10-03T08:00:12;101759.78;;;12.78;76.80
42633;BME280;28261;53.304;-6.284;2022-10-03T08:02:39;101765.75;;;12.82;77.04
42633;BME280;28261;53.304;-6.284;2022-10-03T08:05:13;101763.88;;;12.84;76.55
42633;BME280;28261;53.304;-6.284;2022-10-03T08:07:41;101769.09;;;12.85;76.81
42633;BME280;28261;53.304;-6.284;2022-10-03T08:10:00;101764.56;;;12.88;77.10
42633;BME280;28261;53.304;-6.284;2022-10-03T08:12:54;101764.38;;;12.91;77.35
42633;BME280;28261;53.304;-6.284;2022-10-03T08:15:09;101773.00;;;12.94;76.95
42633;BME280;28261;53.304;-6.284;2022-10-03T08:20:18;101765.50;;;13.01;77.31
42633;BME280;28261;53.304;-6.284;2022-10-03T08:22:36;101761.06;;;13.01;77.06
42633;BME280;28261;53.304;-6.284;2022-10-03T08:27:25;101754.59;;;13.06;77.25
42633;BME280;28261;53.304;-6.284;2022-10-03T08:30:03;101756.38;;;13.05;76.91
42633;BME280;28261;53.304;-6.284;2022-10-03T08:32:30;101756.22;;;13.08;77.67
42633;BME280;28261;53.304;-6.284;2022-10-03T08:35:10;101752.41;;;13.12;77.88
42633;BME280;28261;53.304;-6.284;2022-10-03T08:37:54;101749.47;;;13.17;77.96
42633;BME280;28261;53.304;-6.284;2022-10-03T08:43:57;101741.09;;;13.23;77.76
42633;BME280;28261;53.304;-6.284;2022-10-03T08:46:18;101728.75;;;13.22;78.09
42633;BME280;28261;53.304;-6.284;2022-10-03T08:48:57;101726.72;;;13.26;78.13
42633;BME280;28261;53.304;-6.284;2022-10-03T08:54:08;101731.47;;;13.35;77.96
42633;BME280;28261;53.304;-6.284;2022-10-03T08:56:18;101728.66;;;13.38;78.32
42633;BME280;28261;53.304;-6.284;2022-10-03T09:01:28;101720.97;;;13.48;77.94
42633;BME280;28261;53.304;-6.284;2022-10-03T09:06:37;101717.03;;;13.53;78.41
42633;BME280;28261;53.304;-6.284;2022-10-03T09:14:39;101718.56;;;13.58;78.73
42633;BME280;28261;53.304;-6.284;2022-10-03T09:17:01;101720.16;;;13.60;78.53
42633;BME280;28261;53.304;-6.284;2022-10-03T09:19:39;101711.19;;;13.61;79.50
42633;BME280;28261;53.304;-6.284;2022-10-03T09:22:15;101705.03;;;13.61;79.35
42633;BME280;28261;53.304;-6.284;2022-10-03T09:24:54;101700.66;;;13.60;79.46
42633;BME280;28261;53.304;-6.284;2022-10-03T09:27:20;101699.69;;;13.61;79.78
42633;BME280;28261;53.304;-6.284;2022-10-03T09:29:39;101683.72;;;13.61;79.77
42633;BME280;28261;53.304;-6.284;2022-10-03T09:32:40;101683.72;;;13.61;79.62
42633;BME280;28261;53.304;-6.284;2022-10-03T09:35:21;101675.81;;;13.59;79.85
42633;BME280;28261;53.304;-6.284;2022-10-03T09:37:53;101677.44;;;13.62;79.38
42633;BME280;28261;53.304;-6.284;2022-10-03T09:40:48;101665.84;;;13.63;79.21
42633;BME280;28261;53.304;-6.284;2022-10-03T09:43:23;101667.41;;;13.65;79.47
42633;BME280;28261;53.304;-6.284;2022-10-03T09:48:34;101647.53;;;13.71;79.31
42633;BME280;28261;53.304;-6.284;2022-10-03T09:51:06;101642.00;;;13.74;78.58
42633;BME280;28261;53.304;-6.284;2022-10-03T09:56:26;101648.34;;;13.86;78.77
42633;BME280;28261;53.304;-6.284;2022-10-03T10:01:18;101637.16;;;13.94;78.98
42633;BME280;28261;53.304;-6.284;2022-10-03T10:04:18;101632.75;;;13.93;79.08
42633;BME280;28261;53.304;-6.284;2022-10-03T10:07:34;101620.06;;;13.83;79.45
42633;BME280;28261;53.304;-6.284;2022-10-03T10:09:58;101618.56;;;13.79;79.43
42633;BME280;28261;53.304;-6.284;2022-10-03T10:15:05;101630.41;;;13.75;80.36
42633;BME280;28261;53.304;-6.284;2022-10-03T10:20:19;101620.47;;;13.77;81.21
42633;BME280;28261;53.304;-6.284;2022-10-03T10:25:29;101618.34;;;13.82;82.01
42633;BME280;28261;53.304;-6.284;2022-10-03T10:30:18;101622.31;;;13.90;81.61
42633;BME280;28261;53.304;-6.284;2022-10-03T10:38:01;101609.97;;;14.01;80.72
42633;BME280;28261;53.304;-6.284;2022-10-03T10:40:35;101613.50;;;14.02;80.74
42633;BME280;28261;53.304;-6.284;2022-10-03T10:45:38;101600.72;;;14.07;80.72
42633;BME280;28261;53.304;-6.284;2022-10-03T10:51:06;101589.44;;;14.16;80.85
42633;BME280;28261;53.304;-6.284;2022-10-03T11:07:22;101566.38;;;14.80;77.54
42633;BME280;28261;53.304;-6.284;2022-10-03T11:24:15;101528.56;;;15.10;75.83
42633;BME280;28261;53.304;-6.284;2022-10-03T11:29:47;101525.22;;;15.19;74.71
42633;BME280;28261;53.304;-6.284;2022-10-03T11:32:30;101535.69;;;15.22;74.81
42633;BME280;28261;53.304;-6.284;2022-10-03T11:37:23;101531.38;;;15.33;74.33
42633;BME280;28261;53.304;-6.284;2022-10-03T11:39:41;101512.44;;;15.36;74.03
42633;BME280;28261;53.304;-6.284;2022-10-03T11:41:51;101512.97;;;15.41;74.15
42633;BME280;28261;53.304;-6.284;2022-10-03T11:44:07;101503.00;;;15.43;73.67
42633;BME280;28261;53.304;-6.284;2022-10-03T11:46:23;101493.06;;;15.45;73.18
42633;BME280;28261;53.304;-6.284;2022-10-03T11:48:37;101483.00;;;15.49;73.00
42633;BME280;28261;53.304;-6.284;2022-10-03T11:50:45;101485.53;;;15.50;72.94
42633;BME280;28261;53.304;-6.284;2022-10-03T11:53:12;101474.75;;;15.52;72.96
42633;BME280;28261;53.304;-6.284;2022-10-03T11:55:26;101471.94;;;15.53;73.26
42633;BME280;28261;53.304;-6.284;2022-10-03T11:57:35;101470.13;;;15.54;72.81
42633;BME280;28261;53.304;-6.284;2022-10-03T11:59:58;101465.63;;;15.54;72.50
42633;BME280;28261;53.304;-6.284;2022-10-03T12:02:15;101469.28;;;15.53;72.47
42633;BME280;28261;53.304;-6.284;2022-10-03T12:04:30;101460.28;;;15.54;72.64
42633;BME280;28261;53.304;-6.284;2022-10-03T12:06:58;101461.75;;;15.59;72.72
42633;BME280;28261;53.304;-6.284;2022-10-03T12:09:28;101455.34;;;15.61;72.84
42633;BME280;28261;53.304;-6.284;2022-10-03T12:11:41;101454.25;;;15.64;72.93
42633;BME280;28261;53.304;-6.284;2022-10-03T12:14:05;101444.16;;;15.67;72.74
42633;BME280;28261;53.304;-6.284;2022-10-03T12:16:21;101438.47;;;15.72;72.88
42633;BME280;28261;53.304;-6.284;2022-10-03T12:18:31;101439.94;;;15.76;72.82
42633;BME280;28261;53.304;-6.284;2022-10-03T12:21:03;101435.44;;;15.77;73.07
42633;BME280;28261;53.304;-6.284;2022-10-03T12:23:20;101437.00;;;15.79;72.56
42633;BME280;28261;53.304;-6.284;2022-10-03T12:25:33;101447.72;;;15.79;72.92
42633;BME280;28261;53.304;-6.284;2022-10-03T12:27:46;101437.00;;;15.79;73.07
42633;BME280;28261;53.304;-6.284;2022-10-03T12:29:55;101437.00;;;15.79;73.22
42633;BME280;28261;53.304;-6.284;2022-10-03T12:32:14;101427.41;;;15.77;72.90
42633;BME280;28261;53.304;-6.284;2022-10-03T12:34:31;101430.19;;;15.75;73.17
42633;BME280;28261;53.304;-6.284;2022-10-03T12:36:47;101430.19;;;15.75;73.14
42633;BME280;28261;53.304;-6.284;2022-10-03T12:39:12;101423.91;;;15.76;73.34
42633;BME280;28261;53.304;-6.284;2022-10-03T12:41:37;101418.22;;;15.81;73.04
42633;BME280;28261;53.304;-6.284;2022-10-03T12:43:55;101424.06;;;15.86;72.89
42633;BME280;28261;53.304;-6.284;2022-10-03T12:46:12;101423.69;;;15.90;73.25
42633;BME280;28261;53.304;-6.284;2022-10-03T12:48:29;101415.41;;;15.94;72.99
42633;BME280;28261;53.304;-6.284;2022-10-03T12:50:44;101407.16;;;15.97;72.89
42633;BME280;28261;53.304;-6.284;2022-10-03T12:53:03;101412.50;;;15.97;73.09
42633;BME280;28261;53.304;-6.284;2022-10-03T12:55:23;101408.75;;;15.99;73.27
42633;BME280;28261;53.304;-6.284;2022-10-03T12:57:49;101407.88;;;15.99;73.61
42633;BME280;28261;53.304;-6.284;2022-10-03T13:00:03;101403.28;;;16.01;73.57
42633;BME280;28261;53.304;-6.284;2022-10-03T13:02:21;101405.94;;;16.01;73.83
42633;BME280;28261;53.304;-6.284;2022-10-03T13:04:36;101397.06;;;16.00;73.79
42633;BME280;28261;53.304;-6.284;2022-10-03T13:06:51;101405.09;;;16.00;73.78
42633;BME280;28261;53.304;-6.284;2022-10-03T13:09:22;101389.16;;;15.99;74.24
42633;BME280;28261;53.304;-6.284;2022-10-03T13:11:35;101375.78;;;15.99;74.04
42633;BME280;28261;53.304;-6.284;2022-10-03T13:13:56;101380.19;;;16.00;74.65
42633;BME280;28261;53.304;-6.284;2022-10-03T13:16:22;101380.78;;;16.03;74.74
42633;BME280;28261;53.304;-6.284;2022-10-03T13:18:47;101365.31;;;16.07;74.91
42633;BME280;28261;53.304;-6.284;2022-10-03T13:21:00;101359.72;;;16.10;75.12
42633;BME280;28261;53.304;-6.284;2022-10-03T13:23:40;101361.09;;;16.16;74.99
42633;BME280;28261;53.304;-6.284;2022-10-03T13:25:50;101359.00;;;16.19;75.00
42633;BME280;28261;53.304;-6.284;2022-10-03T13:28:06;101354.00;;;16.26;74.75
42633;BME280;28261;53.304;-6.284;2022-10-03T13:30:19;101355.81;;;16.37;74.67
42633;BME280;28261;53.304;-6.284;2022-10-03T13:32:30;101354.31;;;16.44;74.77
42633;BME280;28261;53.304;-6.284;2022-10-03T13:35:01;101343.38;;;16.47;74.92
42633;BME280;28261;53.304;-6.284;2022-10-03T13:37:30;101348.22;;;16.53;74.68
42633;BME280;28261;53.304;-6.284;2022-10-03T13:39:44;101338.81;;;16.59;75.02
42633;BME280;28261;53.304;-6.284;2022-10-03T13:42:02;101335.78;;;16.64;74.41
42633;BME280;28261;53.304;-6.284;2022-10-03T13:44:14;101332.09;;;16.65;74.36
42633;BME280;28261;53.304;-6.284;2022-10-03T13:46:25;101320.41;;;16.66;74.64
42633;BME280;28261;53.304;-6.284;2022-10-03T13:48:34;101320.28;;;16.67;74.78
42633;BME280;28261;53.304;-6.284;2022-10-03T13:50:43;101327.09;;;16.71;75.12
42633;BME280;28261;53.304;-6.284;2022-10-03T13:52:52;101331.06;;;16.77;75.06
42633;BME280;28261;53.304;-6.284;2022-10-03T13:55:24;101320.97;;;16.81;75.04
42633;BME280;28261;53.304;-6.284;2022-10-03T13:57:33;101328.03;;;16.82;75.30
42633;BME280;28261;53.304;-6.284;2022-10-03T13:59:44;101324.38;;;16.83;75.15
42633;BME280;28261;53.304;-6.284;2022-10-03T14:02:00;101324.47;;;16.81;75.18
42633;BME280;28261;53.304;-6.284;2022-10-03T14:06:51;101309.16;;;16.83;75.37
42633;BME280;28261;53.304;-6.284;2022-10-03T14:09:10;101308.88;;;16.86;75.43
42633;BME280;28261;53.304;-6.284;2022-10-03T14:11:22;101311.44;;;16.88;75.39
42633;BME280;28261;53.304;-6.284;2022-10-03T14:13:34;101299.88;;;16.87;75.63
42633;BME280;28261;53.304;-6.284;2022-10-03T14:15:45;101296.38;;;16.87;75.75
42633;BME280;28261;53.304;-6.284;2022-10-03T14:17:59;101282.09;;;16.86;75.71
42633;BME280;28261;53.304;-6.284;2022-10-03T14:20:20;101297.59;;;16.83;75.57
42633;BME280;28261;53.304;-6.284;2022-10-03T14:22:36;101301.53;;;16.79;76.06
42633;BME280;28261;53.304;-6.284;2022-10-03T14:25:05;101295.84;;;16.72;76.10
42633;BME280;28261;53.304;-6.284;2022-10-03T14:27:31;101289.75;;;16.70;76.59
42633;BME280;28261;53.304;-6.284;2022-10-03T14:29:47;101283.69;;;16.68;76.58
42633;BME280;28261;53.304;-6.284;2022-10-03T14:31:57;101290.72;;;16.69;76.50
42633;BME280;28261;53.304;-6.284;2022-10-03T14:34:17;101296.81;;;16.71;76.66
42633;BME280;28261;53.304;-6.284;2022-10-03T14:36:34;101288.50;;;16.74;75.90
42633;BME280;28261;53.304;-6.284;2022-10-03T14:38:53;101293.84;;;16.74;75.45
42633;BME280;28261;53.304;-6.284;2022-10-03T14:41:08;101295.56;;;16.75;74.84
42633;BME280;28261;53.304;-6.284;2022-10-03T14:43:32;101292.75;;;16.77;74.77
42633;BME280;28261;53.304;-6.284;2022-10-03T14:45:42;101295.56;;;16.75;74.92
42633;BME280;28261;53.304;-6.284;2022-10-03T14:47:48;101294.59;;;16.76;75.06
42633;BME280;28261;53.304;-6.284;2022-10-03T14:49:55;101293.03;;;16.73;74.89
42633;BME280;28261;53.304;-6.284;2022-10-03T14:52:03;101293.16;;;16.72;74.98